Time;durP1;ratioP1;P1;durP2;ratioP2;P2;SDS_P1;SDS_P2;PMS_P1;PMS_P2;Temp;Humidity;BMP_temperature;BMP_pressure;BME280_temperature;BME280_humidity;BME280_pressure;Samples;Min_cycle;Max_cycle;Signal;HPM_P1;HPM_P2
2024/01/17 00:01:58;;;;;;;12.95;4.97;;;-0.80;99.90;;;;;;5092626;28;20143;-65
2024/01/17 00:04:24;;;;;;;18.90;4.38;;;-0.80;99.90;;;;;;5091681;28;20031;-65
2024/01/17 00:06:50;;;;;;;8.35;4.82;;;-0.80;99.90;;;;;;5092540;28;20055;-65
2024/01/17 00:09:17;;;;;;;13.40;5.60;;;-0.80;99.90;;;;;;5092669;28;20029;-65
2024/01/17 00:11:42;;;;;;;6.38;3.88;;;-0.80;99.90;;;;;;5092514;28;20024;-65
2024/01/17 00:14:08;;;;;;;8.65;4.50;;;-0.80;99.90;;;;;;5092553;28;20062;-65
2024/01/17 00:16:34;;;;;;;12.38;4.38;;;-0.80;99.90;;;;;;5092475;28;20027;-65
2024/01/17 00:19:00;;;;;;;13.05;4.72;;;-0.80;99.90;;;;;;5092512;28;20069;-65
2024/01/17 00:21:27;;;;;;;12.93;4.90;;;-0.90;99.90;;;;;;5092404;28;20072;-65
2024/01/17 00:23:52;;;;;;;11.63;4.70;;;-0.90;99.90;;;;;;5092421;28;20020;-65
2024/01/17 00:26:18;;;;;;;10.57;5.07;;;-0.90;99.90;;;;;;5092289;28;20088;-65
2024/01/17 00:28:44;;;;;;;12.10;5.00;;;-0.90;99.90;;;;;;5092382;28;20039;-65
2024/01/17 00:31:09;;;;;;;8.60;3.65;;;-0.90;99.90;;;;;;5092217;28;20032;-65
2024/01/17 00:33:35;;;;;;;6.43;3.72;;;-0.90;99.90;;;;;;5092087;28;20036;-65
2024/01/17 00:36:01;;;;;;;11.35;4.97;;;-0.90;99.90;;;;;;5092305;28;20028;-65
2024/01/17 00:38:27;;;;;;;9.45;4.60;;;-0.90;99.90;;;;;;5092218;28;20035;-65
2024/01/17 00:40:53;;;;;;;10.55;4.63;;;-1.00;99.90;;;;;;5092278;28;20032;-65
2024/01/17 00:43:18;;;;;;;11.20;4.32;;;-1.00;99.90;;;;;;5092254;28;20025;-65
2024/01/17 00:45:44;;;;;;;14.90;5.22;;;-1.10;99.90;;;;;;5092165;28;20029;-65
2024/01/17 00:48:13;;;;;;;8.43;4.63;;;-1.10;99.90;;;;;;5092209;28;20052;-65
2024/01/17 00:50:39;;;;;;;11.95;5.07;;;-1.10;99.90;;;;;;5092081;28;20111;-65
2024/01/17 00:53:05;;;;;;;12.57;5.53;;;-1.20;99.90;;;;;;5092067;28;20040;-65
2024/01/17 00:55:31;;;;;;;10.38;4.50;;;-1.20;99.90;;;;;;5091776;28;20053;-65
2024/01/17 00:57:57;;;;;;;12.80;4.93;;;-1.10;99.90;;;;;;5092087;28;20046;-65
2024/01/17 01:00:22;;;;;;;10.77;5.18;;;-1.10;99.90;;;;;;5091962;28;20036;-65
2024/01/17 01:02:51;;;;;;;10.32;5.18;;;-1.10;99.90;;;;;;5091874;28;20028;-65
2024/01/17 01:05:17;;;;;;;9.85;5.20;;;-1.10;99.90;;;;;;5092116;28;20036;-65
2024/01/17 01:07:43;;;;;;;11.35;5.57;;;-1.10;99.90;;;;;;5090802;28;20036;-64
2024/01/17 01:10:09;;;;;;;16.23;6.07;;;-1.00;99.90;;;;;;5091819;28;20033;-65
2024/01/17 01:12:35;;;;;;;11.85;4.88;;;-1.00;99.90;;;;;;5091847;28;20032;-65
2024/01/17 01:15:00;;;;;;;11.90;5.38;;;-1.00;99.90;;;;;;5092416;28;20024;-65
2024/01/17 01:17:26;;;;;;;12.02;5.47;;;-1.00;99.90;;;;;;5095825;28;20368;-65
2024/01/17 01:19:52;;;;;;;10.48;4.70;;;-1.10;99.90;;;;;;5095670;28;20033;-65
2024/01/17 01:22:17;;;;;;;12.32;5.82;;;-1.10;99.90;;;;;;5095885;28;20039;-65
2024/01/17 01:24:43;;;;;;;12.18;5.32;;;-1.20;99.90;;;;;;5095684;28;20047;-65
2024/01/17 01:27:08;;;;;;;9.20;5.30;;;-1.20;99.90;;;;;;5095755;28;20037;-65
2024/01/17 01:29:34;;;;;;;12.38;5.00;;;-1.20;99.90;;;;;;5095639;28;20055;-65
2024/01/17 01:31:59;;;;;;;12.00;4.70;;;-1.20;99.90;;;;;;5095607;28;20035;-65
2024/01/17 01:34:25;;;;;;;11.18;4.75;;;-1.20;99.90;;;;;;5094364;28;20024;-65
2024/01/17 01:36:51;;;;;;;13.07;5.13;;;-1.20;99.90;;;;;;5095499;28;20059;-65
2024/01/17 01:39:16;;;;;;;10.82;4.82;;;-1.10;99.90;;;;;;5095403;28;20099;-65
2024/01/17 01:41:42;;;;;;;7.60;4.20;;;-1.10;99.90;;;;;;5094370;28;20055;-65
2024/01/17 01:44:07;;;;;;;7.72;4.38;;;-1.10;99.90;;;;;;5095240;28;20162;-65
2024/01/17 01:46:34;;;;;;;10.52;5.00;;;-1.20;99.90;;;;;;5095284;28;20039;-65
2024/01/17 01:49:00;;;;;;;9.32;5.07;;;-1.20;99.90;;;;;;5095222;28;20033;-65
2024/01/17 01:51:28;;;;;;;10.48;4.25;;;-1.20;99.90;;;;;;5095050;28;20036;-65
2024/01/17 01:53:57;;;;;;;10.65;4.47;;;-1.20;99.90;;;;;;5095135;28;20039;-65
2024/01/17 01:56:26;;;;;;;14.10;5.80;;;-1.20;99.90;;;;;;5095143;28;20106;-65
2024/01/17 01:58:54;;;;;;;7.95;4.07;;;-1.30;99.90;;;;;;5095148;28;20016;-65
2024/01/17 02:01:20;;;;;;;11.43;4.90;;;-1.30;99.90;;;;;;5095039;28;20031;-65
2024/01/17 02:03:47;;;;;;;10.65;5.03;;;-1.30;99.90;;;;;;5094790;28;20035;-65
2024/01/17 02:06:14;;;;;;;10.93;5.38;;;-1.30;99.90;;;;;;5094844;28;20031;-65
2024/01/17 02:08:40;;;;;;;14.48;4.82;;;-1.30;99.90;;;;;;5094912;28;20029;-65
2024/01/17 02:11:07;;;;;;;13.50;4.50;;;-1.30;99.90;;;;;;5094810;28;20039;-65
2024/01/17 02:13:33;;;;;;;9.88;4.80;;;-1.30;99.90;;;;;;5094876;28;20021;-65
2024/01/17 02:16:00;;;;;;;10.80;4.82;;;-1.30;99.90;;;;;;5094796;28;20041;-65
2024/01/17 02:18:26;;;;;;;9.65;4.72;;;-1.20;99.90;;;;;;5094707;28;20024;-65
2024/01/17 02:20:51;;;;;;;11.25;5.82;;;-1.20;99.90;;;;;;5094510;28;20083;-65
2024/01/17 02:23:28;;;;;;;11.68;4.40;;;-1.20;99.90;;;;;;5094626;28;20032;-65
2024/01/17 02:25:56;;;;;;;10.00;4.95;;;-1.20;99.90;;;;;;5093608;28;20039;-65
2024/01/17 02:28:22;;;;;;;12.23;5.57;;;-1.20;99.90;;;;;;5093696;28;20037;-65
2024/01/17 02:30:48;;;;;;;10.15;5.18;;;-1.20;99.90;;;;;;5094426;28;20028;-65
2024/01/17 02:33:14;;;;;;;9.65;4.53;;;-1.20;99.90;;;;;;5094176;28;20043;-65
2024/01/17 02:35:40;;;;;;;8.02;4.65;;;-1.20;99.90;;;;;;5094449;28;20029;-65
2024/01/17 02:38:05;;;;;;;13.32;4.72;;;-1.20;99.90;;;;;;5094250;28;20028;-65
2024/01/17 02:40:31;;;;;;;18.98;5.45;;;-1.20;99.90;;;;;;5094303;28;20039;-65
2024/01/17 02:42:57;;;;;;;11.50;5.15;;;-1.20;99.90;;;;;;5094305;28;20036;-65
2024/01/17 02:45:22;;;;;;;11.50;4.90;;;-1.30;99.90;;;;;;5094234;28;20032;-65
2024/01/17 02:47:48;;;;;;;13.52;5.07;;;-1.20;99.90;;;;;;5094018;28;20036;-65
2024/01/17 02:50:15;;;;;;;10.43;4.65;;;-1.20;99.90;;;;;;5094052;28;20029;-65
2024/01/17 02:52:49;;;;;;;14.68;6.07;;;-1.20;99.90;;;;;;5094069;28;20439;-65
2024/01/17 02:55:18;;;;;;;11.20;5.30;;;-1.20;99.90;;;;;;5093947;28;20037;-65
2024/01/17 02:57:45;;;;;;;9.18;4.78;;;-1.20;99.90;;;;;;5093961;28;20024;-65
2024/01/17 03:00:11;;;;;;;10.85;4.57;;;-1.20;99.90;;;;;;5093020;28;20058;-65
2024/01/17 03:02:37;;;;;;;10.80;4.97;;;-1.20;99.90;;;;;;5093599;28;20082;-65
2024/01/17 03:05:03;;;;;;;9.32;5.20;;;-1.20;99.90;;;;;;5093887;28;20092;-65
2024/01/17 03:07:30;;;;;;;10.15;5.07;;;-1.20;99.90;;;;;;5093687;28;20104;-65
2024/01/17 03:09:55;;;;;;;15.88;4.95;;;-1.10;99.90;;;;;;5093695;28;20033;-65
2024/01/17 03:12:21;;;;;;;10.65;5.20;;;-1.20;99.90;;;;;;5093758;28;20033;-65
2024/01/17 03:14:47;;;;;;;11.63;4.57;;;-1.20;99.90;;;;;;5093767;28;20051;-65
2024/01/17 03:17:12;;;;;;;10.70;4.88;;;-1.20;99.90;;;;;;5093488;28;20032;-65
2024/01/17 03:19:38;;;;;;;10.77;5.22;;;-1.20;99.90;;;;;;5093459;28;20025;-65
2024/01/17 03:22:04;;;;;;;12.38;4.75;;;-1.20;99.90;;;;;;5093445;28;20028;-65
2024/01/17 03:24:30;;;;;;;9.43;4.50;;;-1.20;99.90;;;;;;5093467;28;20051;-65
2024/01/17 03:26:55;;;;;;;10.30;4.65;;;-1.20;99.90;;;;;;5093351;28;20032;-65
2024/01/17 03:29:21;;;;;;;10.77;4.60;;;-1.20;99.90;;;;;;5093356;28;20032;-65
2024/01/17 03:31:47;;;;;;;12.13;5.45;;;-1.20;99.90;;;;;;5093097;28;20029;-65
2024/01/17 03:34:13;;;;;;;13.45;4.68;;;-1.20;99.90;;;;;;5093055;28;20037;-65
2024/01/17 03:36:39;;;;;;;9.38;4.18;;;-1.20;99.90;;;;;;5093206;28;20028;-65
2024/01/17 03:39:05;;;;;;;11.10;5.35;;;-1.30;99.90;;;;;;5093036;28;20052;-65
2024/01/17 03:41:31;;;;;;;11.35;4.55;;;-1.30;99.90;;;;;;5093075;28;20036;-65
2024/01/17 03:43:58;;;;;;;6.80;3.80;;;-1.30;99.90;;;;;;5093100;28;20040;-65
2024/01/17 03:46:24;;;;;;;12.63;5.15;;;-1.30;99.90;;;;;;5092858;28;20040;-65
2024/01/17 03:48:50;;;;;;;10.13;4.85;;;-1.30;99.90;;;;;;5091901;28;20505;-65
2024/01/17 03:51:16;;;;;;;9.05;4.57;;;-1.30;99.90;;;;;;5092855;28;20032;-65
2024/01/17 03:53:42;;;;;;;17.33;4.88;;;-1.30;99.90;;;;;;5092846;28;20040;-65
2024/01/17 03:56:07;;;;;;;9.27;4.30;;;-1.30;99.90;;;;;;5092537;28;20058;-65
2024/01/17 03:58:33;;;;;;;12.68;5.90;;;-1.30;99.90;;;;;;5092691;28;20029;-65
2024/01/17 04:01:01;;;;;;;13.68;4.57;;;-1.20;99.90;;;;;;5092641;28;20051;-65
2024/01/17 04:03:27;;;;;;;10.68;5.43;;;-1.10;99.90;;;;;;5092490;28;20025;-65
2024/01/17 04:05:52;;;;;;;10.18;4.78;;;-1.10;99.90;;;;;;5092563;28;20040;-65
2024/01/17 04:08:19;;;;;;;10.63;5.03;;;-1.10;99.90;;;;;;5092467;28;20082;-65
2024/01/17 04:10:44;;;;;;;11.70;4.78;;;-1.10;99.90;;;;;;5092487;28;20048;-65
2024/01/17 04:13:10;;;;;;;10.48;4.28;;;-1.00;99.90;;;;;;5092519;28;20024;-65
2024/01/17 04:15:35;;;;;;;10.23;4.45;;;-1.00;99.90;;;;;;5092494;28;20090;-65
2024/01/17 04:18:01;;;;;;;9.70;4.50;;;-1.00;99.90;;;;;;5092525;28;20032;-65
2024/01/17 04:20:26;;;;;;;10.10;4.80;;;-1.00;99.90;;;;;;5092386;28;20028;-65
2024/01/17 04:22:52;;;;;;;8.77;4.97;;;-0.90;99.90;;;;;;5092403;28;20032;-65
2024/01/17 04:25:17;;;;;;;11.73;4.78;;;-0.90;99.90;;;;;;5092400;28;20032;-65
2024/01/17 04:27:43;;;;;;;11.82;6.03;;;-0.90;99.90;;;;;;5092238;28;20040;-65
2024/01/17 04:30:11;;;;;;;10.52;4.78;;;-0.90;99.90;;;;;;5092232;28;20039;-65
2024/01/17 04:32:38;;;;;;;14.88;4.80;;;-0.90;99.90;;;;;;5092158;28;20021;-65
2024/01/17 04:35:04;;;;;;;12.18;4.32;;;-0.90;99.90;;;;;;5092229;28;20016;-65
2024/01/17 04:37:30;;;;;;;16.73;5.15;;;-1.00;99.90;;;;;;5092215;28;20096;-65
2024/01/17 04:39:57;;;;;;;11.27;5.10;;;-1.00;99.90;;;;;;5092161;28;20033;-65
2024/01/17 04:42:22;;;;;;;9.40;4.28;;;-1.00;99.90;;;;;;5092097;28;20082;-65
2024/01/17 04:44:49;;;;;;;9.57;4.43;;;-1.10;99.90;;;;;;5092169;28;20032;-65
2024/01/17 04:47:15;;;;;;;8.38;4.47;;;-1.10;99.90;;;;;;5092221;28;20028;-65
2024/01/17 04:49:42;;;;;;;7.32;4.10;;;-1.10;99.90;;;;;;5092951;28;20028;-65
2024/01/17 04:52:09;;;;;;;8.95;4.38;;;-1.10;99.90;;;;;;5098884;28;20032;-65
2024/01/17 04:54:35;;;;;;;5.80;3.97;;;-1.00;99.90;;;;;;5098560;28;20043;-65
2024/01/17 04:57:01;;;;;;;5.97;3.67;;;-1.10;99.90;;;;;;5098752;28;20029;-65
2024/01/17 04:59:26;;;;;;;9.98;4.65;;;-1.10;99.90;;;;;;5098773;28;20222;-65
2024/01/17 05:01:52;;;;;;;12.85;4.45;;;-1.10;99.90;;;;;;5098685;28;20028;-65
2024/01/17 05:04:18;;;;;;;10.15;3.95;;;-1.10;99.90;;;;;;5098509;28;20115;-65
2024/01/17 05:06:44;;;;;;;11.23;4.93;;;-1.10;99.90;;;;;;5098480;28;20103;-65
2024/01/17 05:09:11;;;;;;;9.73;4.03;;;-1.10;99.90;;;;;;5098648;28;20037;-65
2024/01/17 05:11:37;;;;;;;10.13;3.92;;;-1.10;99.90;;;;;;5098483;28;20464;-64
2024/01/17 05:14:03;;;;;;;9.82;4.85;;;-1.10;99.90;;;;;;5098633;28;20024;-65
2024/01/17 05:16:29;;;;;;;10.98;4.82;;;-1.10;99.90;;;;;;5098695;28;20035;-65
2024/01/17 05:18:54;;;;;;;8.80;4.20;;;-1.10;99.90;;;;;;5098514;28;20024;-65
2024/01/17 05:21:20;;;;;;;11.15;4.88;;;-1.10;99.90;;;;;;5098413;28;20040;-65
2024/01/17 05:23:45;;;;;;;9.27;3.78;;;-1.10;99.90;;;;;;5098710;28;20035;-65
2024/01/17 05:26:11;;;;;;;10.27;4.57;;;-1.10;99.90;;;;;;5098492;28;20032;-65
2024/01/17 05:28:36;;;;;;;7.55;3.83;;;-1.10;99.90;;;;;;5098462;28;20040;-65
2024/01/17 05:31:02;;;;;;;9.93;5.28;;;-1.10;99.90;;;;;;5098335;28;20084;-65
2024/01/17 05:33:28;;;;;;;10.95;4.40;;;-1.10;99.90;;;;;;5098205;28;20028;-65
2024/01/17 05:35:53;;;;;;;9.20;4.13;;;-1.00;99.90;;;;;;5098412;28;20033;-65
2024/01/17 05:38:19;;;;;;;9.40;4.30;;;-1.00;99.90;;;;;;5098480;28;20032;-65
2024/01/17 05:40:45;;;;;;;10.63;4.65;;;-1.00;99.90;;;;;;5098310;28;20048;-65
2024/01/17 05:43:10;;;;;;;9.88;4.90;;;-1.00;99.90;;;;;;5098341;28;20067;-65
2024/01/17 05:45:36;;;;;;;9.38;5.03;;;-1.00;99.90;;;;;;5098314;28;20051;-65
2024/01/17 05:48:02;;;;;;;17.77;4.90;;;-1.00;99.90;;;;;;5098348;28;20048;-65
2024/01/17 05:50:28;;;;;;;9.02;4.43;;;-1.00;99.90;;;;;;5098173;28;20029;-65
2024/01/17 05:52:53;;;;;;;9.45;4.93;;;-1.00;99.90;;;;;;5098312;28;20086;-65
2024/01/17 05:55:20;;;;;;;7.95;4.70;;;-1.00;99.90;;;;;;5098006;28;20114;-65
2024/01/17 05:57:46;;;;;;;9.75;4.90;;;-1.00;99.90;;;;;;5098248;28;20036;-65
2024/01/17 06:00:13;;;;;;;12.55;5.55;;;-1.00;99.90;;;;;;5098169;28;20411;-65
2024/01/17 06:02:40;;;;;;;13.25;5.43;;;-1.00;99.90;;;;;;5094203;28;20033;-65
2024/01/17 06:05:08;;;;;;;10.30;4.93;;;-1.00;99.90;;;;;;5094927;28;20039;-65
2024/01/17 06:07:34;;;;;;;9.07;5.10;;;-1.00;99.90;;;;;;5094891;28;20028;-65
2024/01/17 06:10:00;;;;;;;11.30;5.30;;;-1.00;99.90;;;;;;5094844;28;20040;-65
2024/01/17 06:12:26;;;;;;;12.05;5.18;;;-1.00;99.90;;;;;;5094838;28;20040;-65
2024/01/17 06:14:52;;;;;;;13.13;5.40;;;-1.00;99.90;;;;;;5094811;28;20056;-66
2024/01/17 06:17:18;;;;;;;7.90;4.63;;;-1.00;99.90;;;;;;5094793;28;20020;-66
2024/01/17 06:19:43;;;;;;;10.32;4.75;;;-1.00;99.90;;;;;;5093676;28;20062;-66
2024/01/17 06:22:09;;;;;;;9.63;4.85;;;-1.00;99.90;;;;;;5094622;28;20578;-65
2024/01/17 06:24:36;;;;;;;9.48;4.60;;;-1.00;99.90;;;;;;5094604;28;20025;-66
2024/01/17 06:27:02;;;;;;;6.82;4.40;;;-1.00;99.90;;;;;;5094575;28;20024;-66
2024/01/17 06:29:30;;;;;;;10.82;5.53;;;-1.00;99.90;;;;;;5094575;28;20092;-65
2024/01/17 06:31:56;;;;;;;8.90;4.65;;;-1.00;99.90;;;;;;5094525;28;20029;-65
2024/01/17 06:34:22;;;;;;;9.88;4.95;;;-0.90;99.90;;;;;;5094362;28;20050;-66
2024/01/17 06:36:48;;;;;;;15.07;4.78;;;-0.90;99.90;;;;;;5094356;28;20044;-65
2024/01/17 06:39:16;;;;;;;8.50;4.97;;;-0.90;99.90;;;;;;5094354;28;20029;-66
2024/01/17 06:41:42;;;;;;;9.63;4.72;;;-0.90;99.90;;;;;;5094345;28;20055;-65
2024/01/17 06:44:09;;;;;;;12.75;5.70;;;-0.90;99.90;;;;;;5094275;28;20028;-66
2024/01/17 06:46:35;;;;;;;8.20;4.15;;;-1.00;99.90;;;;;;5094260;28;20033;-66
2024/01/17 06:49:01;;;;;;;11.30;4.38;;;-0.90;99.90;;;;;;5094249;28;20047;-66
2024/01/17 06:51:27;;;;;;;10.63;4.40;;;-0.90;99.90;;;;;;5094001;28;20048;-66
2024/01/17 06:53:52;;;;;;;10.75;4.28;;;-0.90;99.90;;;;;;5094011;28;20028;-66
2024/01/17 06:56:18;;;;;;;9.43;4.40;;;-0.90;99.90;;;;;;5093914;28;20064;-66
2024/01/17 06:58:44;;;;;;;8.13;4.03;;;-0.90;99.90;;;;;;5094095;28;20064;-66
2024/01/17 07:01:09;;;;;;;10.55;3.83;;;-0.90;99.90;;;;;;5093871;28;20024;-66
2024/01/17 07:03:36;;;;;;;9.60;4.80;;;-0.90;99.90;;;;;;5093643;28;20054;-66
2024/01/17 07:06:04;;;;;;;13.77;4.20;;;-0.90;99.90;;;;;;5083234;28;20071;-66
2024/01/17 07:08:30;;;;;;;8.57;4.63;;;-0.80;99.90;;;;;;5070975;28;20029;-66
2024/01/17 07:10:55;;;;;;;10.75;5.15;;;-0.90;99.90;;;;;;5071411;28;20022;-65
2024/01/17 07:13:21;;;;;;;10.63;4.18;;;-0.80;99.90;;;;;;5072518;28;20027;-66
2024/01/17 07:15:46;;;;;;;9.88;4.32;;;-0.80;99.90;;;;;;5072554;28;20451;-65
2024/01/17 07:18:12;;;;;;;9.15;5.03;;;-0.80;99.90;;;;;;5073192;28;20029;-66
2024/01/17 07:20:38;;;;;;;10.02;4.35;;;-0.80;99.90;;;;;;5073321;28;20029;-66
2024/01/17 07:23:04;;;;;;;7.72;3.35;;;-0.80;99.90;;;;;;5072216;28;20088;-66
2024/01/17 07:25:31;;;;;;;10.38;3.95;;;-0.90;99.90;;;;;;5073388;28;20017;-66
2024/01/17 07:27:56;;;;;;;8.57;3.92;;;-0.80;99.90;;;;;;5073349;28;20025;-66
2024/01/17 07:30:26;;;;;;;9.32;4.00;;;-0.80;99.90;;;;;;5073166;28;20116;-66
2024/01/17 07:32:52;;;;;;;8.38;4.38;;;-0.80;99.90;;;;;;5072234;28;20028;-66
2024/01/17 07:35:18;;;;;;;11.00;4.43;;;-0.80;99.90;;;;;;5072134;28;20040;-64
2024/01/17 07:37:43;;;;;;;10.50;3.95;;;-0.80;99.90;;;;;;5073021;28;20036;-63
2024/01/17 07:40:10;;;;;;;7.68;4.00;;;-0.80;99.90;;;;;;5073180;28;20036;-63
2024/01/17 07:42:35;;;;;;;11.25;4.55;;;-0.80;99.90;;;;;;5072979;28;20044;-64
2024/01/17 07:45:02;;;;;;;11.85;4.82;;;-0.80;99.90;;;;;;5072991;28;20041;-64
2024/01/17 07:47:27;;;;;;;9.85;4.50;;;-0.80;99.90;;;;;;5072058;28;20517;-63
2024/01/17 07:49:55;;;;;;;10.32;3.72;;;-0.80;99.90;;;;;;5072886;28;20044;-64
2024/01/17 07:52:20;;;;;;;11.68;4.93;;;-0.80;99.90;;;;;;5072877;28;20384;-64
2024/01/17 07:54:46;;;;;;;12.07;5.18;;;-0.80;99.90;;;;;;5071732;28;20059;-63
2024/01/17 07:57:12;;;;;;;9.77;4.60;;;-0.80;99.90;;;;;;5071753;28;20048;-64
2024/01/17 07:59:37;;;;;;;9.75;4.18;;;-0.70;99.90;;;;;;5072839;28;20029;-63
2024/01/17 08:02:04;;;;;;;9.52;4.32;;;-0.70;99.90;;;;;;5072483;28;20021;-65
2024/01/17 08:04:30;;;;;;;10.48;5.07;;;-0.70;99.90;;;;;;5072630;28;20021;-64
2024/01/17 08:06:56;;;;;;;9.30;4.35;;;-0.70;99.90;;;;;;5072587;28;20586;-63
2024/01/17 08:09:22;;;;;;;11.43;4.65;;;-0.70;99.90;;;;;;5072742;28;20033;-63
2024/01/17 08:11:51;;;;;;;10.20;4.65;;;-0.70;99.90;;;;;;5072539;28;20051;-64
2024/01/17 08:14:17;;;;;;;14.13;5.30;;;-0.70;99.90;;;;;;5072429;28;20051;-63
2024/01/17 08:16:45;;;;;;;13.57;4.75;;;-0.70;99.90;;;;;;5072456;28;20084;-64
2024/01/17 08:19:11;;;;;;;7.60;4.53;;;-0.60;99.90;;;;;;5072287;28;20021;-64
2024/01/17 08:21:36;;;;;;;9.35;4.35;;;-0.60;99.90;;;;;;5072340;28;20089;-64
2024/01/17 08:24:02;;;;;;;8.27;4.75;;;-0.60;99.90;;;;;;5071249;28;20027;-63
2024/01/17 08:26:28;;;;;;;8.23;4.13;;;-0.60;99.90;;;;;;5071698;28;20025;-63
2024/01/17 08:28:54;;;;;;;9.52;3.58;;;-0.60;99.90;;;;;;5072375;28;20483;-63
2024/01/17 08:31:20;;;;;;;12.10;3.92;;;-0.60;99.90;;;;;;5072180;28;20028;-64
2024/01/17 08:33:46;;;;;;;5.72;3.22;;;-0.50;99.90;;;;;;5072097;28;20024;-64
2024/01/17 08:36:14;;;;;;;8.70;5.03;;;-0.50;99.90;;;;;;5072305;28;20060;-64
2024/01/17 08:38:43;;;;;;;9.23;5.00;;;-0.50;99.90;;;;;;5072113;28;20025;-63
2024/01/17 08:41:09;;;;;;;13.57;5.22;;;-0.50;99.90;;;;;;5072120;28;20029;-65
2024/01/17 08:43:35;;;;;;;10.60;4.22;;;-0.50;99.90;;;;;;5072148;28;20084;-63
2024/01/17 08:46:01;;;;;;;9.00;4.72;;;-0.50;99.90;;;;;;5072248;28;20025;-64
2024/01/17 08:48:28;;;;;;;12.20;4.50;;;-0.50;99.90;;;;;;5072249;28;20036;-62
2024/01/17 08:50:54;;;;;;;11.70;4.43;;;-0.40;99.90;;;;;;5071045;28;20028;-61
2024/01/17 08:53:19;;;;;;;13.15;5.28;;;-0.40;99.90;;;;;;5071976;28;20089;-63
2024/01/17 08:56:04;;;;;;;10.40;5.13;;;-0.40;99.90;;;;;;5071982;28;20052;-61
2024/01/17 08:58:31;;;;;;;12.00;5.10;;;-0.30;99.90;;;;;;5072131;28;20032;-62
2024/01/17 09:00:57;;;;;;;8.27;4.75;;;-0.30;99.90;;;;;;5071997;28;20036;-62
2024/01/17 09:03:23;;;;;;;13.63;4.63;;;-0.30;99.90;;;;;;5071728;28;20542;-62
2024/01/17 09:05:48;;;;;;;12.18;4.82;;;-0.30;99.90;;;;;;5086420;28;20042;-63
2024/01/17 09:08:14;;;;;;;11.05;5.35;;;-0.20;99.90;;;;;;5091910;28;20064;-62
2024/01/17 09:10:40;;;;;;;13.50;5.82;;;-0.20;99.90;;;;;;5091967;28;20039;-61
2024/01/17 09:13:06;;;;;;;10.50;5.13;;;-0.20;99.90;;;;;;5091883;28;20017;-62
2024/01/17 09:15:32;;;;;;;12.93;5.50;;;-0.20;99.90;;;;;;5091788;28;20036;-63
2024/01/17 09:17:58;;;;;;;14.10;6.00;;;-0.20;99.90;;;;;;5091980;28;20021;-61
2024/01/17 09:20:24;;;;;;;13.90;5.75;;;-0.10;99.90;;;;;;5091877;28;20024;-61
2024/01/17 09:22:49;;;;;;;13.13;5.63;;;-0.10;99.90;;;;;;5091911;28;20039;-61
2024/01/17 09:25:15;;;;;;;12.52;5.07;;;0.00;99.90;;;;;;5091866;28;20037;-62
2024/01/17 09:27:41;;;;;;;14.68;6.32;;;0.00;99.90;;;;;;5091808;28;20039;-61
2024/01/17 09:30:07;;;;;;;12.88;6.18;;;-0.10;99.90;;;;;;5091645;28;20028;-61
2024/01/17 09:32:33;;;;;;;15.27;6.88;;;0.00;99.90;;;;;;5091537;28;20040;-63
2024/01/17 09:34:58;;;;;;;13.88;6.05;;;0.00;99.90;;;;;;5091750;28;20024;-61
2024/01/17 09:37:24;;;;;;;19.52;6.70;;;0.00;99.90;;;;;;5094335;28;20088;-63
2024/01/17 09:39:50;;;;;;;19.50;6.97;;;0.00;99.90;;;;;;5095590;28;20028;-62
2024/01/17 09:42:16;;;;;;;19.48;7.53;;;0.00;99.90;;;;;;5095474;28;20034;-63
2024/01/17 09:44:42;;;;;;;12.70;8.10;;;0.00;99.90;;;;;;5094418;28;20063;-64
2024/01/17 09:47:11;;;;;;;15.88;7.75;;;0.10;99.90;;;;;;5095532;28;20051;-65
2024/01/17 09:49:37;;;;;;;12.98;6.32;;;0.10;99.90;;;;;;5094521;28;20051;-63
2024/01/17 09:52:04;;;;;;;13.65;6.85;;;0.20;99.90;;;;;;5094506;28;20029;-64
2024/01/17 09:54:36;;;;;;;12.70;6.45;;;0.20;99.90;;;;;;5094485;28;20036;-64
2024/01/17 09:57:07;;;;;;;12.52;5.57;;;0.20;99.90;;;;;;5094943;28;20128;-63
2024/01/17 09:59:37;;;;;;;8.05;4.15;;;0.30;99.90;;;;;;5095256;28;20020;-63
2024/01/17 10:02:05;;;;;;;10.55;6.28;;;0.30;99.90;;;;;;5095117;28;20032;-65
2024/01/17 10:04:31;;;;;;;16.15;6.05;;;0.30;99.90;;;;;;5095112;28;20012;-63
2024/01/17 10:06:57;;;;;;;11.43;5.88;;;0.30;99.90;;;;;;5094037;28;20016;-63
2024/01/17 10:09:27;;;;;;;15.68;6.90;;;0.40;99.90;;;;;;5095063;28;20493;-64
2024/01/17 10:11:53;;;;;;;16.05;7.00;;;0.30;99.90;;;;;;5077181;28;20035;-63
2024/01/17 10:14:21;;;;;;;9.60;6.10;;;0.30;99.90;;;;;;5094936;28;20080;-63
2024/01/17 10:16:47;;;;;;;15.85;6.70;;;0.30;99.90;;;;;;5094812;28;20055;-63
2024/01/17 10:19:26;;;;;;;13.30;6.90;;;0.40;99.90;;;;;;5095057;28;20028;-63
2024/01/17 10:21:52;;;;;;;10.77;5.00;;;0.40;99.90;;;;;;5094629;28;20063;-70
2024/01/17 10:24:19;;;;;;;16.60;7.60;;;0.40;99.90;;;;;;5094718;28;20033;-69
2024/01/17 10:26:45;;;;;;;11.50;6.15;;;0.50;99.90;;;;;;5094696;28;20124;-69
2024/01/17 10:29:11;;;;;;;14.82;6.85;;;0.50;99.90;;;;;;5094625;28;20028;-68
2024/01/17 10:31:40;;;;;;;10.57;5.85;;;0.50;99.90;;;;;;5094506;28;20505;-68
2024/01/17 10:34:09;;;;;;;13.23;6.55;;;0.50;99.90;;;;;;5094295;28;20032;-68
2024/01/17 10:36:42;;;;;;;14.52;7.43;;;0.50;99.90;;;;;;5094122;28;20062;-68
2024/01/17 10:39:11;;;;;;;15.23;6.88;;;0.50;99.90;;;;;;5093310;28;20024;-68
2024/01/17 10:41:51;;;;;;;15.45;7.28;;;0.60;99.90;;;;;;5094311;28;20057;-68
2024/01/17 10:44:18;;;;;;;16.15;7.13;;;0.60;99.90;;;;;;5094351;28;20058;-67
2024/01/17 10:46:47;;;;;;;16.75;7.20;;;0.60;99.90;;;;;;5093192;28;20038;-68
2024/01/17 10:49:13;;;;;;;15.43;7.03;;;0.60;99.90;;;;;;5092342;28;20063;-68
2024/01/17 10:51:43;;;;;;;18.60;6.97;;;0.70;99.90;;;;;;5094156;28;20036;-67
2024/01/17 10:54:13;;;;;;;14.95;7.72;;;0.70;99.90;;;;;;5093044;28;20017;-68
2024/01/17 10:56:46;;;;;;;19.67;6.65;;;0.70;99.90;;;;;;5093972;28;20045;-68
2024/01/17 10:59:27;;;;;;;13.77;7.00;;;0.70;99.90;;;;;;5092825;28;20040;-64
2024/01/17 11:01:55;;;;;;;17.07;7.50;;;0.80;99.90;;;;;;5094043;28;20039;-68
2024/01/17 11:04:25;;;;;;;16.77;6.50;;;0.80;99.90;;;;;;5093789;28;20275;-68
2024/01/17 11:06:52;;;;;;;13.00;6.72;;;0.80;99.90;;;;;;5093750;28;20024;-67
2024/01/17 11:09:20;;;;;;;11.27;6.20;;;0.80;99.90;;;;;;5093717;28;20033;-67
2024/01/17 11:11:46;;;;;;;14.25;6.60;;;0.80;99.90;;;;;;5093576;28;20036;-68
2024/01/17 11:14:13;;;;;;;16.02;7.80;;;0.80;99.90;;;;;;5093589;28;20048;-68
2024/01/17 11:16:42;;;;;;;12.65;7.28;;;0.80;99.90;;;;;;5093683;28;20394;-67
2024/01/17 11:19:09;;;;;;;15.38;7.00;;;0.90;99.90;;;;;;5093684;28;20035;-69
2024/01/17 11:21:36;;;;;;;17.30;6.95;;;0.90;99.90;;;;;;5093514;28;20391;-67
2024/01/17 11:24:16;;;;;;;19.60;7.47;;;0.90;99.90;;;;;;5093549;28;20037;-68
2024/01/17 11:26:55;;;;;;;13.77;6.68;;;0.90;99.90;;;;;;5093428;28;20028;-68
2024/01/17 11:29:34;;;;;;;16.90;7.10;;;0.90;99.90;;;;;;5093516;28;20089;-68
2024/01/17 11:32:22;;;;;;;13.88;6.47;;;0.90;99.90;;;;;;5093275;28;20050;-68
2024/01/17 11:34:48;;;;;;;14.43;6.75;;;0.90;99.90;;;;;;5093236;28;20020;-68
2024/01/17 11:37:32;;;;;;;15.77;7.15;;;0.90;99.90;;;;;;5093113;28;20020;-68
2024/01/17 11:39:58;;;;;;;20.88;8.35;;;0.90;99.90;;;;;;5093144;28;20043;-67
2024/01/17 11:42:24;;;;;;;19.98;7.97;;;1.00;99.90;;;;;;5093029;28;20084;-68
2024/01/17 11:44:51;;;;;;;16.92;7.50;;;1.00;99.90;;;;;;5093131;28;20017;-68
2024/01/17 11:47:20;;;;;;;19.25;7.97;;;1.00;99.90;;;;;;5093059;28;20021;-68
2024/01/17 11:49:46;;;;;;;15.77;7.75;;;1.00;99.90;;;;;;5092947;28;20024;-67
2024/01/17 11:52:34;;;;;;;18.95;8.15;;;1.10;99.90;;;;;;5091982;28;20052;-68
2024/01/17 11:55:00;;;;;;;19.83;6.80;;;1.10;99.90;;;;;;5092709;28;20036;-68
2024/01/17 11:57:28;;;;;;;16.90;7.70;;;1.10;99.90;;;;;;5092998;28;20021;-68
2024/01/17 12:00:14;;;;;;;15.48;7.50;;;1.10;99.90;;;;;;5091850;28;20039;-68
2024/01/17 12:02:44;;;;;;;18.90;7.97;;;1.20;99.90;;;;;;5092508;28;20108;-68
2024/01/17 12:05:11;;;;;;;14.15;7.50;;;1.20;99.90;;;;;;5092778;28;20028;-68
2024/01/17 12:07:39;;;;;;;17.70;7.50;;;1.20;99.90;;;;;;5091606;28;20025;-68
2024/01/17 12:10:10;;;;;;;17.73;8.27;;;1.20;99.90;;;;;;5092611;28;20039;-68
2024/01/17 12:12:42;;;;;;;13.40;6.80;;;1.20;99.90;;;;;;5092584;28;20027;-67
2024/01/17 12:15:09;;;;;;;;;;;1.20;99.90;;;;;;5093109;28;20073;-67
2024/01/17 12:17:37;;;;;;;12.27;6.22;;;1.20;99.90;;;;;;5092619;28;19975;-68
2024/01/17 12:20:07;;;;;;;15.52;6.55;;;1.20;99.90;;;;;;5092464;28;20048;-68
2024/01/17 12:22:32;;;;;;;16.50;7.03;;;1.20;99.90;;;;;;5092534;28;20078;-68
2024/01/17 12:24:59;;;;;;;14.50;6.68;;;1.20;99.90;;;;;;5092450;28;20028;-67
2024/01/17 12:27:26;;;;;;;11.02;6.10;;;1.20;99.90;;;;;;5092486;28;20029;-68
2024/01/17 12:29:54;;;;;;;14.82;6.95;;;1.20;99.90;;;;;;5092390;28;20052;-68
2024/01/17 12:32:22;;;;;;;17.33;7.50;;;1.30;99.90;;;;;;5092193;28;20433;-68
2024/01/17 12:34:47;;;;;;;12.88;6.93;;;1.30;99.90;;;;;;5092427;28;20089;-68
2024/01/17 12:37:13;;;;;;;16.90;8.00;;;1.30;99.90;;;;;;5092258;28;20021;-68
2024/01/17 12:39:39;;;;;;;17.83;7.68;;;1.40;99.90;;;;;;5092374;28;20035;-68
2024/01/17 12:42:04;;;;;;;20.45;8.27;;;1.40;99.90;;;;;;5091271;28;20039;-68